createdAt,value
2017-08-17T00:00:57.398Z,5.93
2017-08-17T00:03:25.731Z,7.30
2017-08-17T00:05:54.564Z,7.93
2017-08-17T00:08:22.895Z,7.43
2017-08-17T00:10:51.197Z,7.77
2017-08-17T00:13:19.544Z,7.43
2017-08-17T00:15:47.787Z,6.30
2017-08-17T00:18:16.051Z,7.90
2017-08-17T00:20:44.580Z,7.60
2017-08-17T00:23:13.195Z,6.90
2017-08-17T00:25:41.514Z,7.33
2017-08-17T00:28:09.877Z,8.17
2017-08-17T00:30:38.172Z,7.03
2017-08-17T00:33:07.055Z,7.20
2017-08-17T00:35:35.479Z,6.97
2017-08-17T00:38:03.752Z,7.20
2017-08-17T00:40:32.099Z,7.63
2017-08-17T00:43:00.352Z,7.60
2017-08-17T00:45:28.960Z,7.10
2017-08-17T00:47:57.350Z,8.87
2017-08-17T00:50:25.603Z,8.40
2017-08-17T00:52:53.925Z,8.00
2017-08-17T00:55:22.255Z,10.23
2017-08-17T00:57:50.504Z,8.67
2017-08-17T01:00:19.248Z,9.00
2017-08-17T01:02:47.566Z,8.80
2017-08-17T01:05:15.813Z,9.40
2017-08-17T01:07:44.095Z,9.90
2017-08-17T01:10:12.938Z,11.83
2017-08-17T01:12:41.256Z,9.90
2017-08-17T01:15:09.512Z,8.50
2017-08-17T01:17:37.795Z,8.50
2017-08-17T01:20:06.092Z,9.80
2017-08-17T01:22:35.597Z,9.90
2017-08-17T01:25:03.943Z,9.77
2017-08-17T01:27:32.289Z,10.00
2017-08-17T01:30:01.379Z,8.50
2017-08-17T01:32:29.629Z,8.93
2017-08-17T01:34:57.936Z,8.00
2017-08-17T01:37:26.213Z,9.43
2017-08-17T01:39:54.498Z,8.50
2017-08-17T01:42:22.996Z,8.10
2017-08-17T01:44:51.294Z,7.97
2017-08-17T01:47:32.410Z,7.83
2017-08-17T01:50:00.815Z,8.10
2017-08-17T01:52:29.968Z,8.50
2017-08-17T01:54:58.383Z,7.90
2017-08-17T01:57:26.628Z,7.93
2017-08-17T01:59:54.909Z,8.30
2017-08-17T02:02:23.325Z,7.83
2017-08-17T02:04:51.598Z,7.50
2017-08-17T02:07:19.892Z,8.00
2017-08-17T02:09:48.175Z,7.83
2017-08-17T02:12:16.524Z,7.67
2017-08-17T02:14:44.956Z,8.27
2017-08-17T02:17:13.417Z,8.47
2017-08-17T02:19:41.668Z,7.37
2017-08-17T02:22:09.928Z,8.10
2017-08-17T02:24:38.185Z,7.60
2017-08-17T02:27:06.512Z,7.30
2017-08-17T02:29:34.874Z,7.40
2017-08-17T02:32:03.122Z,7.20
2017-08-17T02:34:31.400Z,7.27
2017-08-17T02:36:59.872Z,6.97
2017-08-17T02:39:28.161Z,8.33
2017-08-17T02:41:56.389Z,7.50
2017-08-17T02:44:24.831Z,7.17
2017-08-17T02:46:53.106Z,7.67
2017-08-17T02:49:21.367Z,7.13
2017-08-17T02:51:49.733Z,8.13
2017-08-17T02:54:18.105Z,8.70
2017-08-17T02:56:46.536Z,8.10
2017-08-17T02:59:14.799Z,7.80
2017-08-17T03:01:43.327Z,7.33
2017-08-17T03:04:11.681Z,7.07
2017-08-17T03:06:39.989Z,8.30
2017-08-17T03:09:08.235Z,6.00
2017-08-17T03:11:36.965Z,8.60
2017-08-17T03:14:05.340Z,7.60
2017-08-17T03:16:33.861Z,8.43
2017-08-17T03:19:02.125Z,6.30
2017-08-17T03:21:30.521Z,6.63
2017-08-17T03:23:59.150Z,7.23
2017-08-17T03:26:27.824Z,7.17
2017-08-17T03:28:56.221Z,7.87
2017-08-17T03:31:24.859Z,6.33
2017-08-17T03:33:53.221Z,7.33
2017-08-17T03:36:21.504Z,6.40
2017-08-17T03:38:49.916Z,8.10
2017-08-17T03:41:18.313Z,7.50
2017-08-17T03:43:46.577Z,7.27
2017-08-17T03:46:14.962Z,7.43
2017-08-17T03:48:43.199Z,6.70
2017-08-17T03:51:11.495Z,7.70
2017-08-17T03:53:39.888Z,7.37
2017-08-17T03:56:08.199Z,6.53
2017-08-17T03:58:37.013Z,6.90
2017-08-17T04:01:05.296Z,7.97
2017-08-17T04:03:33.565Z,8.20
2017-08-17T04:06:02.034Z,7.70
2017-08-17T04:08:30.299Z,7.77
2017-08-17T04:10:58.613Z,8.10
2017-08-17T04:13:26.989Z,6.67
2017-08-17T04:15:55.799Z,6.33
2017-08-17T04:18:24.140Z,6.20
2017-08-17T04:20:52.388Z,6.30
2017-08-17T04:23:20.799Z,5.70
2017-08-17T04:25:49.297Z,6.60
2017-08-17T04:28:17.607Z,7.30
2017-08-17T04:30:45.882Z,7.30
2017-08-17T04:33:14.240Z,6.60
2017-08-17T04:35:42.611Z,7.00
2017-08-17T04:38:11.131Z,7.30
2017-08-17T04:40:39.695Z,6.00
2017-08-17T04:43:08.156Z,5.40
2017-08-17T04:45:36.565Z,6.57
2017-08-17T04:48:05.337Z,6.33
2017-08-17T04:50:33.731Z,6.30
2017-08-17T04:53:02.075Z,6.57
2017-08-17T04:55:31.184Z,5.87
2017-08-17T04:58:17.726Z,7.00
2017-08-17T05:00:46.051Z,5.80
2017-08-17T05:03:14.323Z,6.30
2017-08-17T05:05:42.752Z,5.60
2017-08-17T05:08:11.432Z,5.87
2017-08-17T05:10:39.708Z,6.60
2017-08-17T05:13:07.967Z,6.70
2017-08-17T05:15:36.409Z,6.33
2017-08-17T05:18:05.002Z,5.13
2017-08-17T05:20:33.266Z,6.03
2017-08-17T05:23:01.552Z,6.80
2017-08-17T05:25:29.875Z,6.80
2017-08-17T05:27:58.265Z,6.30
2017-08-17T05:30:26.618Z,6.63
2017-08-17T05:32:54.934Z,6.37
2017-08-17T05:35:24.592Z,6.43
2017-08-17T05:37:53.447Z,6.17
2017-08-17T05:43:01.795Z,6.83
2017-08-17T05:45:31.546Z,5.87
2017-08-17T05:47:59.863Z,6.93
2017-08-17T05:50:32.396Z,7.30
2017-08-17T05:53:00.816Z,6.80
2017-08-17T05:55:29.492Z,5.50
2017-08-17T05:57:58.773Z,5.83
2017-08-17T06:00:27.245Z,6.27
2017-08-17T06:02:55.656Z,6.33
2017-08-17T06:05:25.438Z,6.13
2017-08-17T06:07:53.863Z,6.20
2017-08-17T06:10:22.741Z,7.17
2017-08-17T06:12:51.495Z,8.27
2017-08-17T06:15:20.332Z,6.13
2017-08-17T06:20:21.870Z,6.50
2017-08-17T06:22:50.289Z,7.33
2017-08-17T06:25:18.630Z,6.60
2017-08-17T06:27:47.009Z,6.23
2017-08-17T06:30:15.780Z,6.43
2017-08-17T06:32:44.398Z,6.33
2017-08-17T06:35:15.589Z,7.60
2017-08-17T06:37:47.037Z,5.97
2017-08-17T06:40:15.379Z,6.00
2017-08-17T06:42:43.809Z,6.30
2017-08-17T06:45:12.223Z,6.68
2017-08-17T06:50:13.207Z,6.07
2017-08-17T06:52:41.704Z,6.20
2017-08-17T06:55:10.660Z,5.77
2017-08-17T06:57:38.984Z,5.73
2017-08-17T07:00:07.205Z,6.40
2017-08-17T07:02:35.505Z,5.87
2017-08-17T07:05:04.097Z,6.57
2017-08-17T07:07:32.551Z,6.20
2017-08-17T07:10:00.841Z,6.80
2017-08-17T07:12:29.124Z,6.80
2017-08-17T07:14:57.534Z,5.73
2017-08-17T07:17:25.893Z,5.30
2017-08-17T07:19:54.403Z,5.10
2017-08-17T07:22:22.719Z,5.40
2017-08-17T07:24:51.131Z,5.57
2017-08-17T07:27:19.559Z,5.10
2017-08-17T07:29:48.194Z,4.63
2017-08-17T07:32:16.540Z,4.83
2017-08-17T07:34:44.852Z,4.80
2017-08-17T07:37:13.174Z,5.87
2017-08-17T07:39:41.460Z,5.70
2017-08-17T07:42:09.727Z,6.37
2017-08-17T07:44:38.398Z,6.10
2017-08-17T07:47:06.734Z,4.90
2017-08-17T07:49:34.981Z,6.30
2017-08-17T07:52:03.239Z,5.20
2017-08-17T07:54:31.628Z,5.33
2017-08-17T07:56:59.889Z,4.60
2017-08-17T07:59:28.164Z,6.00
2017-08-17T08:01:57.359Z,4.70
2017-08-17T08:04:25.761Z,5.23
2017-08-17T08:06:54.239Z,6.27
2017-08-17T08:09:23.856Z,6.50
2017-08-17T08:11:52.367Z,5.60
2017-08-17T08:14:20.630Z,5.83
2017-08-17T08:16:48.926Z,6.10
2017-08-17T08:19:17.165Z,5.50
2017-08-17T08:21:45.426Z,5.60
2017-08-17T08:24:13.992Z,5.80
2017-08-17T08:26:42.239Z,5.60
2017-08-17T08:29:10.558Z,6.03
2017-08-17T08:31:39.248Z,7.03
2017-08-17T08:34:07.894Z,6.57
2017-08-17T08:36:36.235Z,6.80
2017-08-17T08:39:04.563Z,6.13
2017-08-17T08:41:32.960Z,5.80
2017-08-17T08:44:01.297Z,5.70
2017-08-17T08:46:29.604Z,5.13
2017-08-17T08:48:58.116Z,6.70
2017-08-17T08:51:26.609Z,6.70
2017-08-17T08:53:54.852Z,6.60
2017-08-17T08:56:23.249Z,6.07
2017-08-17T08:58:51.683Z,6.20
2017-08-17T09:01:20.048Z,6.60
2017-08-17T09:03:48.415Z,6.23
2017-08-17T09:06:16.829Z,5.93
2017-08-17T09:08:45.507Z,8.20
2017-08-17T09:11:13.750Z,5.97
2017-08-17T09:13:41.998Z,6.83
2017-08-17T09:16:10.319Z,6.47
2017-08-17T09:18:38.576Z,6.30
2017-08-17T09:21:06.894Z,6.20
2017-08-17T09:23:35.166Z,6.87
2017-08-17T09:26:03.405Z,7.50
2017-08-17T09:28:31.720Z,6.33
2017-08-17T09:31:00.855Z,5.50
2017-08-17T09:33:29.554Z,6.50
2017-08-17T09:35:58.194Z,6.70
2017-08-17T09:38:26.869Z,7.27
2017-08-17T09:40:55.666Z,4.80
2017-08-17T09:43:24.337Z,7.43
2017-08-17T09:45:53.208Z,5.50
2017-08-17T09:48:21.611Z,6.50
2017-08-17T09:50:50.204Z,5.97
2017-08-17T09:53:18.580Z,7.20
2017-08-17T09:55:46.825Z,5.73
2017-08-17T09:58:15.219Z,5.47
2017-08-17T10:00:43.840Z,5.53
2017-08-17T10:03:12.119Z,5.80
2017-08-17T10:05:40.647Z,6.07
2017-08-17T10:08:08.907Z,6.00
2017-08-17T10:10:37.871Z,5.50
2017-08-17T10:13:06.815Z,6.10
2017-08-17T10:15:35.234Z,5.83
2017-08-17T10:18:03.545Z,5.73
2017-08-17T10:20:31.975Z,5.60
2017-08-17T10:23:00.341Z,5.40
2017-08-17T10:25:28.823Z,5.93
2017-08-17T10:27:57.164Z,5.97
2017-08-17T10:30:25.483Z,4.90
2017-08-17T10:32:54.268Z,5.20
2017-08-17T10:35:22.942Z,7.47
2017-08-17T10:37:51.239Z,5.70
2017-08-17T10:40:19.750Z,4.70
2017-08-17T10:42:48.274Z,5.40
2017-08-17T10:45:16.830Z,5.87
2017-08-17T10:47:45.255Z,5.53
2017-08-17T10:50:13.929Z,5.23
2017-08-17T10:52:42.206Z,5.30
2017-08-17T10:55:10.444Z,5.37
2017-08-17T10:57:38.874Z,5.33
2017-08-17T11:00:07.163Z,5.00
2017-08-17T11:02:35.780Z,5.80
2017-08-17T11:05:04.061Z,5.30
2017-08-17T11:07:32.487Z,7.13
2017-08-17T11:10:00.961Z,5.17
2017-08-17T11:12:29.547Z,5.30
2017-08-17T11:14:58.032Z,5.30
2017-08-17T11:17:26.277Z,4.23
2017-08-17T11:19:54.524Z,5.00
2017-08-17T11:22:23.245Z,4.50
2017-08-17T11:24:51.547Z,4.30
2017-08-17T11:27:19.845Z,4.57
2017-08-17T11:29:48.196Z,5.60
2017-08-17T11:32:16.567Z,4.67
2017-08-17T11:34:44.924Z,4.13
2017-08-17T11:37:13.167Z,4.80
2017-08-17T11:39:41.686Z,4.90
2017-08-17T11:42:10.088Z,4.30
2017-08-17T11:44:38.404Z,4.37
2017-08-17T11:47:06.669Z,4.47
2017-08-17T11:49:35.184Z,3.73
2017-08-17T11:52:03.477Z,3.93
2017-08-17T11:54:31.760Z,4.73
2017-08-17T11:57:00.928Z,4.10
2017-08-17T11:59:29.171Z,3.73
2017-08-17T12:01:57.412Z,4.23
2017-08-17T12:04:25.693Z,3.90
2017-08-17T12:06:54.012Z,4.10
2017-08-17T12:09:22.276Z,3.80
2017-08-17T12:11:50.594Z,4.00
2017-08-17T12:14:19.318Z,4.00
2017-08-17T12:16:47.751Z,3.70
2017-08-17T12:19:16.066Z,3.73
2017-08-17T12:21:44.320Z,3.93
2017-08-17T12:24:12.567Z,4.10
2017-08-17T12:26:40.818Z,4.13
2017-08-17T12:29:09.378Z,4.00
2017-08-17T12:31:37.623Z,4.10
2017-08-17T12:34:06.280Z,4.30
2017-08-17T12:36:34.639Z,4.43
2017-08-17T12:39:03.310Z,5.10
2017-08-17T12:41:32.092Z,5.40
2017-08-17T12:44:01.451Z,4.13
2017-08-17T12:46:29.739Z,5.27
2017-08-17T12:48:58.116Z,5.27
2017-08-17T12:51:27.115Z,4.47
2017-08-17T12:53:55.514Z,4.90
2017-08-17T12:56:23.942Z,4.77
2017-08-17T12:58:52.600Z,5.30
2017-08-17T13:01:21.248Z,4.40
2017-08-17T13:03:49.624Z,5.00
2017-08-17T13:06:18.481Z,4.70
2017-08-17T13:08:47.013Z,4.80
2017-08-17T13:11:15.247Z,4.57
2017-08-17T13:13:43.643Z,4.00
2017-08-17T13:16:12.064Z,5.60
2017-08-17T13:18:40.768Z,4.40
2017-08-17T13:21:09.047Z,4.63
2017-08-17T13:23:37.831Z,4.00
2017-08-17T13:26:06.239Z,4.83
2017-08-17T13:28:34.838Z,5.00
2017-08-17T13:31:03.251Z,5.47
2017-08-17T13:33:31.877Z,3.50
2017-08-17T13:36:00.302Z,5.07
2017-08-17T13:38:28.747Z,4.57
2017-08-17T13:40:57.103Z,4.60
2017-08-17T13:43:25.679Z,5.00
2017-08-17T13:45:53.980Z,4.60
2017-08-17T13:48:22.228Z,5.20
2017-08-17T13:50:51.050Z,4.50
2017-08-17T13:53:19.413Z,4.10
2017-08-17T13:55:47.661Z,4.93
2017-08-17T13:58:16.207Z,4.77
2017-08-17T14:00:44.557Z,5.43
2017-08-17T14:03:13.048Z,5.97
2017-08-17T14:05:41.561Z,4.60
2017-08-17T14:08:09.949Z,5.50
2017-08-17T14:10:38.484Z,6.60
2017-08-17T14:13:06.798Z,4.40
2017-08-17T14:15:35.391Z,5.10
2017-08-17T14:18:03.648Z,5.53
2017-08-17T14:20:31.901Z,4.87
2017-08-17T14:23:00.276Z,5.40
2017-08-17T14:25:28.592Z,5.80
2017-08-17T14:27:56.879Z,5.33
2017-08-17T14:30:25.296Z,5.73
2017-08-17T14:32:53.864Z,5.57
2017-08-17T14:35:22.119Z,5.10
2017-08-17T14:37:51.301Z,5.63
2017-08-17T14:40:19.827Z,4.77
2017-08-17T14:42:48.352Z,4.70
2017-08-17T14:45:16.986Z,5.13
2017-08-17T14:47:47.985Z,6.00
2017-08-17T14:50:16.829Z,5.23
2017-08-17T14:52:45.453Z,5.20
2017-08-17T14:55:14.080Z,5.60
2017-08-17T14:57:42.790Z,4.93
2017-08-17T15:00:11.089Z,5.40
2017-08-17T15:02:39.744Z,5.90
2017-08-17T15:05:08.268Z,5.87
2017-08-17T15:07:36.591Z,5.70
2017-08-17T15:10:04.892Z,4.70
2017-08-17T15:12:33.278Z,5.13
2017-08-17T15:15:01.577Z,4.30
2017-08-17T15:17:30.045Z,4.90
2017-08-17T15:19:58.723Z,4.60
2017-08-17T15:22:27.191Z,5.17
2017-08-17T15:24:56.025Z,4.97
2017-08-17T15:27:24.312Z,4.70
2017-08-17T15:29:52.901Z,5.20
2017-08-17T15:32:21.158Z,4.83
2017-08-17T15:34:49.741Z,4.57
2017-08-17T15:37:18.028Z,5.13
2017-08-17T15:39:46.367Z,6.00
2017-08-17T15:42:15.288Z,6.20
2017-08-17T15:44:43.535Z,6.27
2017-08-17T15:47:11.779Z,4.63
2017-08-17T15:49:40.144Z,5.40
2017-08-17T15:52:08.390Z,5.27
2017-08-17T15:54:36.703Z,5.80
2017-08-17T15:57:05.056Z,6.80
2017-08-17T15:59:33.892Z,5.63
2017-08-17T16:02:02.357Z,4.67
2017-08-17T16:04:30.911Z,4.83
2017-08-17T16:06:59.160Z,3.90
2017-08-17T16:09:27.519Z,4.40
2017-08-17T16:11:56.215Z,5.73
2017-08-17T16:14:25.177Z,5.00
2017-08-17T16:16:53.521Z,6.07
2017-08-17T16:19:22.028Z,6.90
2017-08-17T16:21:50.646Z,6.00
2017-08-17T16:24:19.020Z,6.97
2017-08-17T16:26:48.273Z,5.10
2017-08-17T16:29:16.515Z,6.87
2017-08-17T16:31:44.765Z,5.70
2017-08-17T16:34:13.068Z,6.47
2017-08-17T16:36:41.301Z,5.60
2017-08-17T16:39:09.555Z,5.97
2017-08-17T16:41:37.836Z,6.60
2017-08-17T16:44:06.108Z,6.17
2017-08-17T16:46:34.367Z,5.30
2017-08-17T16:49:02.739Z,7.00
2017-08-17T16:51:31.012Z,6.23
2017-08-17T16:54:00.277Z,6.50
2017-08-17T16:56:28.547Z,5.43
2017-08-17T16:58:56.908Z,6.03
2017-08-17T17:01:25.611Z,5.63
2017-08-17T17:03:53.868Z,5.43
2017-08-17T17:06:22.114Z,6.13
2017-08-17T17:08:50.391Z,7.07
2017-08-17T17:11:18.639Z,6.13
2017-08-17T17:13:46.978Z,6.13
2017-08-17T17:16:15.204Z,6.10
2017-08-17T17:18:43.451Z,7.50
2017-08-17T17:21:11.770Z,5.53
2017-08-17T17:23:40.667Z,5.90
2017-08-17T17:26:10.291Z,6.20
2017-08-17T17:28:38.576Z,5.70
2017-08-17T17:31:06.820Z,5.90
2017-08-17T17:33:35.092Z,6.40
2017-08-17T17:36:03.375Z,6.63
2017-08-17T17:38:31.743Z,6.00
2017-08-17T17:40:59.975Z,8.70
2017-08-17T17:43:28.219Z,7.60
2017-08-17T17:45:56.599Z,7.80
2017-08-17T17:48:24.851Z,7.40
2017-08-17T17:50:53.131Z,7.47
2017-08-17T17:53:21.386Z,7.27
2017-08-17T17:55:49.629Z,7.10
2017-08-17T17:58:17.916Z,6.33
2017-08-17T18:00:46.168Z,6.00
2017-08-17T18:03:47.039Z,6.70
2017-08-17T18:06:15.292Z,7.00
2017-08-17T18:08:43.570Z,5.67
2017-08-17T18:11:11.844Z,5.90
2017-08-17T18:13:40.145Z,6.70
2017-08-17T18:16:08.401Z,6.40
2017-08-17T18:18:36.654Z,7.60
2017-08-17T18:21:04.928Z,6.70
2017-08-17T18:23:33.181Z,7.63
2017-08-17T18:26:01.456Z,7.50
2017-08-17T18:28:30.230Z,7.77
2017-08-17T18:30:58.564Z,8.47
2017-08-17T18:33:26.861Z,8.60
2017-08-17T18:35:55.113Z,8.83
2017-08-17T18:38:23.373Z,8.17
2017-08-17T18:40:51.656Z,8.90
2017-08-17T18:43:19.916Z,8.13
2017-08-17T18:45:48.199Z,8.67
2017-08-17T18:48:16.485Z,8.33
2017-08-17T18:50:44.746Z,8.90
2017-08-17T18:53:13.050Z,8.70
2017-08-17T18:55:41.306Z,10.53
2017-08-17T18:58:09.585Z,10.57
2017-08-17T19:00:37.828Z,9.00
2017-08-17T19:03:06.108Z,11.60
2017-08-17T19:05:34.352Z,9.73
2017-08-17T19:08:02.629Z,9.53
2017-08-17T19:10:31.016Z,8.60
2017-08-17T19:12:59.320Z,10.60
2017-08-17T19:15:27.667Z,10.77
2017-08-17T19:17:56.172Z,10.67
2017-08-17T19:20:25.514Z,11.90
2017-08-17T19:22:53.816Z,10.20
2017-08-17T19:25:22.075Z,10.40
2017-08-17T19:27:50.782Z,9.93
2017-08-17T19:30:19.112Z,10.07
2017-08-17T19:32:47.509Z,11.37
2017-08-17T19:35:16.117Z,11.20
2017-08-17T19:37:44.442Z,11.30
2017-08-17T19:40:12.990Z,10.83
2017-08-17T19:42:41.386Z,10.47
2017-08-17T19:45:09.638Z,11.20
2017-08-17T19:47:38.170Z,12.60
2017-08-17T19:50:06.449Z,9.93
2017-08-17T19:52:34.792Z,9.00
2017-08-17T19:55:03.080Z,8.53
2017-08-17T19:57:31.336Z,11.17
2017-08-17T20:00:00.101Z,10.60
2017-08-17T20:02:28.468Z,9.03
2017-08-17T20:04:56.730Z,9.80
2017-08-17T20:07:26.089Z,8.50
2017-08-17T20:09:54.946Z,9.60
2017-08-17T20:12:26.200Z,8.50
2017-08-17T20:14:54.640Z,8.10
2017-08-17T20:17:22.900Z,9.57
2017-08-17T20:19:51.790Z,9.30
2017-08-17T20:22:20.068Z,10.20
2017-08-17T20:24:48.454Z,10.30
2017-08-17T20:27:16.724Z,9.70
2017-08-17T20:29:45.040Z,9.70
2017-08-17T20:32:13.801Z,8.87
2017-08-17T20:34:42.105Z,9.93
2017-08-17T20:37:10.435Z,9.10
2017-08-17T20:39:39.115Z,10.53
2017-08-17T20:42:08.264Z,9.10
2017-08-17T20:44:36.511Z,9.83
2017-08-17T20:47:04.767Z,9.60
2017-08-17T20:49:33.095Z,8.33
2017-08-17T20:52:01.772Z,9.27
2017-08-17T20:54:30.118Z,10.50
2017-08-17T20:56:58.982Z,9.13
2017-08-17T20:59:27.649Z,9.57
2017-08-17T21:01:56.874Z,8.73
2017-08-17T21:04:25.569Z,9.90
2017-08-17T21:06:53.929Z,10.57
2017-08-17T21:09:24.636Z,10.00
2017-08-17T21:11:53.720Z,10.27
2017-08-17T21:14:22.040Z,10.00
2017-08-17T21:16:50.526Z,9.37
2017-08-17T21:19:18.973Z,10.97
2017-08-17T21:21:47.401Z,10.40
2017-08-17T21:24:15.665Z,10.23
2017-08-17T21:26:44.258Z,9.20
2017-08-17T21:29:12.784Z,9.00
2017-08-17T21:31:41.310Z,10.50
2017-08-17T21:34:09.611Z,9.63
2017-08-17T21:36:40.845Z,9.30
2017-08-17T21:39:10.603Z,10.40
2017-08-17T21:41:38.872Z,9.80
2017-08-17T21:44:07.909Z,10.00
2017-08-17T21:46:36.180Z,9.87
2017-08-17T21:49:04.639Z,9.70
2017-08-17T21:51:33.080Z,9.27
2017-08-17T21:54:01.408Z,9.43
2017-08-17T21:56:29.700Z,9.57
2017-08-17T21:58:57.973Z,9.50
2017-08-17T22:01:26.229Z,11.83
2017-08-17T22:03:54.612Z,10.63
2017-08-17T22:06:22.987Z,10.57
2017-08-17T22:08:51.339Z,10.50
2017-08-17T22:11:19.662Z,8.70
2017-08-17T22:13:48.041Z,9.70
2017-08-17T22:16:16.311Z,9.97
2017-08-17T22:18:44.756Z,11.10
2017-08-17T22:21:13.185Z,9.93
2017-08-17T22:23:41.705Z,9.03
2017-08-17T22:26:10.015Z,9.97
2017-08-17T22:28:38.314Z,9.30
2017-08-17T22:31:06.596Z,9.30
2017-08-17T22:33:34.975Z,9.67
2017-08-17T22:36:03.264Z,8.67
2017-08-17T22:38:31.570Z,9.33
2017-08-17T22:40:59.925Z,8.70
2017-08-17T22:43:28.272Z,9.63
2017-08-17T22:45:56.863Z,9.70
2017-08-17T22:48:25.133Z,9.07
2017-08-17T22:50:53.765Z,10.23
2017-08-17T22:53:22.113Z,9.90
2017-08-17T22:55:50.493Z,9.43
2017-08-17T22:58:18.740Z,9.40
2017-08-17T23:00:47.002Z,9.77
2017-08-17T23:03:15.266Z,10.27
2017-08-17T23:05:43.630Z,9.30
2017-08-17T23:08:11.880Z,9.20
2017-08-17T23:10:40.160Z,8.57
2017-08-17T23:13:08.428Z,10.93
2017-08-17T23:15:36.689Z,10.00
2017-08-17T23:18:05.055Z,8.70
2017-08-17T23:20:33.605Z,9.23
2017-08-17T23:23:01.945Z,8.50
2017-08-17T23:25:30.240Z,8.50
2017-08-17T23:27:58.500Z,9.33
2017-08-17T23:30:27.119Z,8.17
2017-08-17T23:32:55.388Z,9.20
2017-08-17T23:35:23.644Z,8.97
2017-08-17T23:37:52.016Z,9.10
2017-08-17T23:40:20.580Z,9.23
2017-08-17T23:42:48.870Z,8.73
2017-08-17T23:45:17.192Z,10.27
2017-08-17T23:47:45.669Z,9.70
2017-08-17T23:50:14.060Z,8.70
2017-08-17T23:52:42.415Z,9.20
2017-08-17T23:55:10.959Z,9.73
2017-08-17T23:57:39.294Z,10.30
